sensor_id;sensor_type;location;lat;lon;timestamp;temperature;humidity
17399;DHT22;8817;48.170;8.592;2022-10-18T00:00:11;19.60;45.30
17399;DHT22;8817;48.170;8.592;2022-10-18T00:02:38;19.60;45.40
17399;DHT22;8817;48.170;8.592;2022-10-18T00:05:05;19.50;45.40
17399;DHT22;8817;48.170;8.592;2022-10-18T00:07:32;19.50;45.50
17399;DHT22;8817;48.170;8.592;2022-10-18T00:10:01;19.50;45.50
17399;DHT22;8817;48.170;8.592;2022-10-18T00:12:28;19.50;45.50
17399;DHT22;8817;48.170;8.592;2022-10-18T00:14:55;19.50;45.50
17399;DHT22;8817;48.170;8.592;2022-10-18T00:17:22;19.50;45.60
17399;DHT22;8817;48.170;8.592;2022-10-18T00:19:49;19.50;45.60
17399;DHT22;8817;48.170;8.592;2022-10-18T00:22:16;19.50;45.70
17399;DHT22;8817;48.170;8.592;2022-10-18T00:24:43;19.50;45.70
17399;DHT22;8817;48.170;8.592;2022-10-18T00:27:11;19.50;45.80
17399;DHT22;8817;48.170;8.592;2022-10-18T00:29:38;19.50;45.80
17399;DHT22;8817;48.170;8.592;2022-10-18T00:32:05;19.60;45.90
17399;DHT22;8817;48.170;8.592;2022-10-18T00:34:32;19.60;45.90
17399;DHT22;8817;48.170;8.592;2022-10-18T00:36:59;19.60;45.90
17399;DHT22;8817;48.170;8.592;2022-10-18T00:39:26;19.60;46.50
17399;DHT22;8817;48.170;8.592;2022-10-18T00:41:52;19.60;45.90
17399;DHT22;8817;48.170;8.592;2022-10-18T00:47:31;19.60;45.90
17399;DHT22;8817;48.170;8.592;2022-10-18T00:50:01;19.60;45.90
17399;DHT22;8817;48.170;8.592;2022-10-18T00:52:31;19.60;46.00
17399;DHT22;8817;48.170;8.592;2022-10-18T00:54:59;19.60;46.00
17399;DHT22;8817;48.170;8.592;2022-10-18T00:57:26;19.60;46.00
17399;DHT22;8817;48.170;8.592;2022-10-18T00:59:54;19.60;46.00
17399;DHT22;8817;48.170;8.592;2022-10-18T01:02:21;19.60;46.00
17399;DHT22;8817;48.170;8.592;2022-10-18T01:04:50;19.60;46.10
17399;DHT22;8817;48.170;8.592;2022-10-18T01:07:27;19.60;46.10
17399;DHT22;8817;48.170;8.592;2022-10-18T01:10:01;19.60;46.20
17399;DHT22;8817;48.170;8.592;2022-10-18T01:12:38;19.60;46.20
17399;DHT22;8817;48.170;8.592;2022-10-18T01:15:11;19.60;46.30
17399;DHT22;8817;48.170;8.592;2022-10-18T01:17:47;19.60;46.30
17399;DHT22;8817;48.170;8.592;2022-10-18T01:23:24;19.60;46.40
17399;DHT22;8817;48.170;8.592;2022-10-18T01:26:01;19.70;46.40
17399;DHT22;8817;48.170;8.592;2022-10-18T01:28:41;19.70;46.40
17399;DHT22;8817;48.170;8.592;2022-10-18T01:31:16;19.70;46.50
17399;DHT22;8817;48.170;8.592;2022-10-18T01:33:48;19.70;46.50
17399;DHT22;8817;48.170;8.592;2022-10-18T01:36:20;19.70;46.50
17399;DHT22;8817;48.170;8.592;2022-10-18T01:38:50;19.70;46.60
17399;DHT22;8817;48.170;8.592;2022-10-18T01:41:19;19.70;46.60
17399;DHT22;8817;48.170;8.592;2022-10-18T01:43:51;19.70;46.60
17399;DHT22;8817;48.170;8.592;2022-10-18T01:46:23;19.70;46.60
17399;DHT22;8817;48.170;8.592;2022-10-18T01:48:51;19.70;46.60
17399;DHT22;8817;48.170;8.592;2022-10-18T01:53:55;19.80;46.80
17399;DHT22;8817;48.170;8.592;2022-10-18T01:56:28;19.80;46.80
17399;DHT22;8817;48.170;8.592;2022-10-18T01:59:22;19.80;46.80
17399;DHT22;8817;48.170;8.592;2022-10-18T02:02:02;19.80;46.90
17399;DHT22;8817;48.170;8.592;2022-10-18T02:04:40;19.80;46.90
17399;DHT22;8817;48.170;8.592;2022-10-18T02:07:23;19.80;46.90
17399;DHT22;8817;48.170;8.592;2022-10-18T02:10:00;19.80;46.90
17399;DHT22;8817;48.170;8.592;2022-10-18T02:12:31;19.80;46.90
17399;DHT22;8817;48.170;8.592;2022-10-18T02:14:59;19.90;47.00
17399;DHT22;8817;48.170;8.592;2022-10-18T02:17:29;19.90;47.00
17399;DHT22;8817;48.170;8.592;2022-10-18T02:19:59;19.90;47.00
17399;DHT22;8817;48.170;8.592;2022-10-18T02:22:31;19.90;47.00
17399;DHT22;8817;48.170;8.592;2022-10-18T02:25:01;19.90;47.10
17399;DHT22;8817;48.170;8.592;2022-10-18T02:27:29;19.90;47.00
17399;DHT22;8817;48.170;8.592;2022-10-18T02:29:56;19.90;47.10
17399;DHT22;8817;48.170;8.592;2022-10-18T02:32:30;19.90;47.10
17399;DHT22;8817;48.170;8.592;2022-10-18T02:35:00;19.90;47.20
17399;DHT22;8817;48.170;8.592;2022-10-18T02:37:33;19.90;47.20
17399;DHT22;8817;48.170;8.592;2022-10-18T02:40:02;19.90;47.20
17399;DHT22;8817;48.170;8.592;2022-10-18T02:42:33;20.00;47.30
17399;DHT22;8817;48.170;8.592;2022-10-18T02:45:01;19.90;47.90
17399;DHT22;8817;48.170;8.592;2022-10-18T02:47:30;20.00;47.30
17399;DHT22;8817;48.170;8.592;2022-10-18T02:49:57;19.90;47.30
17399;DHT22;8817;48.170;8.592;2022-10-18T02:52:24;20.00;47.40
17399;DHT22;8817;48.170;8.592;2022-10-18T02:54:51;20.00;47.40
17399;DHT22;8817;48.170;8.592;2022-10-18T02:57:18;20.00;47.40
17399;DHT22;8817;48.170;8.592;2022-10-18T02:59:44;20.00;48.00
17399;DHT22;8817;48.170;8.592;2022-10-18T03:02:11;20.00;47.40
17399;DHT22;8817;48.170;8.592;2022-10-18T03:04:40;20.00;47.40
17399;DHT22;8817;48.170;8.592;2022-10-18T03:07:07;20.00;47.50
17399;DHT22;8817;48.170;8.592;2022-10-18T03:09:33;20.10;47.50
17399;DHT22;8817;48.170;8.592;2022-10-18T03:12:00;20.00;47.50
17399;DHT22;8817;48.170;8.592;2022-10-18T03:14:27;20.00;47.50
17399;DHT22;8817;48.170;8.592;2022-10-18T03:16:54;20.00;47.50
17399;DHT22;8817;48.170;8.592;2022-10-18T03:19:21;20.00;47.60
17399;DHT22;8817;48.170;8.592;2022-10-18T03:21:50;20.00;47.60
17399;DHT22;8817;48.170;8.592;2022-10-18T03:24:17;20.00;47.70
17399;DHT22;8817;48.170;8.592;2022-10-18T03:26:44;20.00;47.70
17399;DHT22;8817;48.170;8.592;2022-10-18T03:29:11;20.00;47.70
17399;DHT22;8817;48.170;8.592;2022-10-18T03:31:38;20.00;47.70
17399;DHT22;8817;48.170;8.592;2022-10-18T03:34:05;20.10;47.80
17399;DHT22;8817;48.170;8.592;2022-10-18T03:36:32;20.00;47.70
17399;DHT22;8817;48.170;8.592;2022-10-18T03:39:00;20.00;47.70
17399;DHT22;8817;48.170;8.592;2022-10-18T03:41:27;20.10;47.80
17399;DHT22;8817;48.170;8.592;2022-10-18T03:43:54;20.00;47.70
17399;DHT22;8817;48.170;8.592;2022-10-18T03:46:21;20.00;47.80
17399;DHT22;8817;48.170;8.592;2022-10-18T03:48:48;20.00;47.80
17399;DHT22;8817;48.170;8.592;2022-10-18T03:51:15;20.00;47.80
17399;DHT22;8817;48.170;8.592;2022-10-18T03:53:42;20.00;47.80
17399;DHT22;8817;48.170;8.592;2022-10-18T03:56:10;20.00;47.80
17399;DHT22;8817;48.170;8.592;2022-10-18T03:58:37;19.90;47.90
17399;DHT22;8817;48.170;8.592;2022-10-18T04:01:04;20.00;47.90
17399;DHT22;8817;48.170;8.592;2022-10-18T04:03:31;19.90;47.90
17399;DHT22;8817;48.170;8.592;2022-10-18T04:05:58;19.90;48.00
17399;DHT22;8817;48.170;8.592;2022-10-18T04:08:28;19.90;48.00
17399;DHT22;8817;48.170;8.592;2022-10-18T04:10:55;19.90;48.10
17399;DHT22;8817;48.170;8.592;2022-10-18T04:13:23;19.90;48.10
17399;DHT22;8817;48.170;8.592;2022-10-18T04:15:50;19.80;48.10
17399;DHT22;8817;48.170;8.592;2022-10-18T04:18:17;19.80;48.20
17399;DHT22;8817;48.170;8.592;2022-10-18T04:20:43;19.80;48.20
17399;DHT22;8817;48.170;8.592;2022-10-18T04:23:10;19.80;48.40
17399;DHT22;8817;48.170;8.592;2022-10-18T04:25:37;19.80;48.30
17399;DHT22;8817;48.170;8.592;2022-10-18T04:28:04;19.80;48.30
17399;DHT22;8817;48.170;8.592;2022-10-18T04:30:33;19.80;48.40
17399;DHT22;8817;48.170;8.592;2022-10-18T04:32:59;19.80;48.40
17399;DHT22;8817;48.170;8.592;2022-10-18T04:35:26;19.80;48.50
17399;DHT22;8817;48.170;8.592;2022-10-18T04:37:53;19.80;48.50
17399;DHT22;8817;48.170;8.592;2022-10-18T04:40:20;19.80;48.60
17399;DHT22;8817;48.170;8.592;2022-10-18T04:42:47;19.80;48.60
17399;DHT22;8817;48.170;8.592;2022-10-18T04:45:14;19.80;48.70
17399;DHT22;8817;48.170;8.592;2022-10-18T04:47:43;19.70;48.60
17399;DHT22;8817;48.170;8.592;2022-10-18T04:50:09;19.80;48.80
17399;DHT22;8817;48.170;8.592;2022-10-18T04:52:36;19.80;48.80
17399;DHT22;8817;48.170;8.592;2022-10-18T04:55:04;19.80;48.80
17399;DHT22;8817;48.170;8.592;2022-10-18T04:57:31;19.80;48.90
17399;DHT22;8817;48.170;8.592;2022-10-18T04:59:58;19.70;48.80
17399;DHT22;8817;48.170;8.592;2022-10-18T05:02:25;19.80;48.90
17399;DHT22;8817;48.170;8.592;2022-10-18T05:04:53;19.80;48.90
17399;DHT22;8817;48.170;8.592;2022-10-18T05:07:20;19.70;48.90
17399;DHT22;8817;48.170;8.592;2022-10-18T05:09:47;19.80;49.00
17399;DHT22;8817;48.170;8.592;2022-10-18T05:12:14;19.80;49.00
17399;DHT22;8817;48.170;8.592;2022-10-18T05:14:41;19.80;49.00
17399;DHT22;8817;48.170;8.592;2022-10-18T05:17:07;19.80;49.00
17399;DHT22;8817;48.170;8.592;2022-10-18T05:19:34;19.80;48.90
17399;DHT22;8817;48.170;8.592;2022-10-18T05:22:03;19.80;48.90
17399;DHT22;8817;48.170;8.592;2022-10-18T05:24:30;19.70;48.80
17399;DHT22;8817;48.170;8.592;2022-10-18T05:26:57;19.70;48.80
17399;DHT22;8817;48.170;8.592;2022-10-18T05:29:24;19.70;48.80
17399;DHT22;8817;48.170;8.592;2022-10-18T05:31:51;19.70;48.80
17399;DHT22;8817;48.170;8.592;2022-10-18T05:34:18;19.70;49.30
17399;DHT22;8817;48.170;8.592;2022-10-18T05:36:45;19.70;48.80
17399;DHT22;8817;48.170;8.592;2022-10-18T05:39:15;19.60;48.70
17399;DHT22;8817;48.170;8.592;2022-10-18T05:41:42;19.60;48.80
17399;DHT22;8817;48.170;8.592;2022-10-18T05:44:08;19.60;48.80
17399;DHT22;8817;48.170;8.592;2022-10-18T05:46:35;19.60;48.90
17399;DHT22;8817;48.170;8.592;2022-10-18T05:49:02;19.50;48.80
17399;DHT22;8817;48.170;8.592;2022-10-18T05:51:29;19.50;48.90
17399;DHT22;8817;48.170;8.592;2022-10-18T05:53:56;19.50;49.00
17399;DHT22;8817;48.170;8.592;2022-10-18T05:56:24;19.50;49.10
17399;DHT22;8817;48.170;8.592;2022-10-18T05:58:51;19.50;49.20
17399;DHT22;8817;48.170;8.592;2022-10-18T06:01:19;19.50;49.20
17399;DHT22;8817;48.170;8.592;2022-10-18T06:03:46;19.40;49.20
17399;DHT22;8817;48.170;8.592;2022-10-18T06:06:13;19.50;49.40
17399;DHT22;8817;48.170;8.592;2022-10-18T06:08:41;19.40;49.30
17399;DHT22;8817;48.170;8.592;2022-10-18T06:11:10;19.40;49.40
17399;DHT22;8817;48.170;8.592;2022-10-18T06:13:42;19.50;49.50
17399;DHT22;8817;48.170;8.592;2022-10-18T06:16:10;19.50;49.50
17399;DHT22;8817;48.170;8.592;2022-10-18T06:18:38;19.50;49.50
17399;DHT22;8817;48.170;8.592;2022-10-18T06:21:05;19.50;49.60
17399;DHT22;8817;48.170;8.592;2022-10-18T06:23:33;19.50;49.60
17399;DHT22;8817;48.170;8.592;2022-10-18T06:26:01;19.60;49.70
17399;DHT22;8817;48.170;8.592;2022-10-18T06:28:29;19.60;49.70
17399;DHT22;8817;48.170;8.592;2022-10-18T06:30:57;19.60;49.80
17399;DHT22;8817;48.170;8.592;2022-10-18T06:33:24;19.60;49.80
17399;DHT22;8817;48.170;8.592;2022-10-18T06:35:56;19.60;49.80
17399;DHT22;8817;48.170;8.592;2022-10-18T06:38:23;19.60;50.00
17399;DHT22;8817;48.170;8.592;2022-10-18T06:40:50;19.70;50.00
17399;DHT22;8817;48.170;8.592;2022-10-18T06:43:17;19.70;50.10
17399;DHT22;8817;48.170;8.592;2022-10-18T06:45:44;19.70;50.20
17399;DHT22;8817;48.170;8.592;2022-10-18T06:48:13;19.80;50.30
17399;DHT22;8817;48.170;8.592;2022-10-18T06:50:40;19.80;50.30
17399;DHT22;8817;48.170;8.592;2022-10-18T06:53:07;19.90;50.30
17399;DHT22;8817;48.170;8.592;2022-10-18T06:55:34;19.90;50.30
17399;DHT22;8817;48.170;8.592;2022-10-18T06:58:01;19.90;50.30
17399;DHT22;8817;48.170;8.592;2022-10-18T07:00:28;20.00;50.30
17399;DHT22;8817;48.170;8.592;2022-10-18T07:02:56;20.00;50.30
17399;DHT22;8817;48.170;8.592;2022-10-18T07:05:24;20.00;50.30
17399;DHT22;8817;48.170;8.592;2022-10-18T07:07:51;20.00;50.30
17399;DHT22;8817;48.170;8.592;2022-10-18T07:10:18;20.00;50.80
17399;DHT22;8817;48.170;8.592;2022-10-18T07:12:45;20.00;50.30
17399;DHT22;8817;48.170;8.592;2022-10-18T07:15:12;20.00;50.30
17399;DHT22;8817;48.170;8.592;2022-10-18T07:17:39;20.00;50.40
17399;DHT22;8817;48.170;8.592;2022-10-18T07:20:07;20.10;50.40
17399;DHT22;8817;48.170;8.592;2022-10-18T07:22:35;20.10;50.50
17399;DHT22;8817;48.170;8.592;2022-10-18T07:25:04;20.10;50.40
17399;DHT22;8817;48.170;8.592;2022-10-18T07:27:35;20.10;50.50
17399;DHT22;8817;48.170;8.592;2022-10-18T07:30:03;20.10;50.50
17399;DHT22;8817;48.170;8.592;2022-10-18T07:32:30;20.10;50.40
17399;DHT22;8817;48.170;8.592;2022-10-18T07:34:57;20.10;50.50
17399;DHT22;8817;48.170;8.592;2022-10-18T07:37:24;20.20;50.60
17399;DHT22;8817;48.170;8.592;2022-10-18T07:39:52;20.20;50.70
17399;DHT22;8817;48.170;8.592;2022-10-18T07:42:19;20.30;50.80
17399;DHT22;8817;48.170;8.592;2022-10-18T07:44:46;20.30;50.80
17399;DHT22;8817;48.170;8.592;2022-10-18T07:47:13;20.40;50.90
17399;DHT22;8817;48.170;8.592;2022-10-18T07:49:40;20.40;50.90
17399;DHT22;8817;48.170;8.592;2022-10-18T07:52:07;20.50;51.00
17399;DHT22;8817;48.170;8.592;2022-10-18T07:54:34;20.60;51.10
17399;DHT22;8817;48.170;8.592;2022-10-18T07:57:03;20.60;51.00
17399;DHT22;8817;48.170;8.592;2022-10-18T07:59:29;20.70;51.10
17399;DHT22;8817;48.170;8.592;2022-10-18T08:01:56;20.70;51.10
17399;DHT22;8817;48.170;8.592;2022-10-18T08:04:23;20.80;51.10
17399;DHT22;8817;48.170;8.592;2022-10-18T08:06:50;20.90;51.20
17399;DHT22;8817;48.170;8.592;2022-10-18T08:09:17;20.90;51.20
17399;DHT22;8817;48.170;8.592;2022-10-18T08:11:44;21.00;51.20
17399;DHT22;8817;48.170;8.592;2022-10-18T08:14:12;21.00;51.20
17399;DHT22;8817;48.170;8.592;2022-10-18T08:16:39;21.10;51.20
17399;DHT22;8817;48.170;8.592;2022-10-18T08:19:06;21.10;51.20
17399;DHT22;8817;48.170;8.592;2022-10-18T08:21:33;21.20;51.10
17399;DHT22;8817;48.170;8.592;2022-10-18T08:24:00;21.30;51.10
17399;DHT22;8817;48.170;8.592;2022-10-18T08:26:27;21.30;51.00
17399;DHT22;8817;48.170;8.592;2022-10-18T08:28:54;21.40;51.10
17399;DHT22;8817;48.170;8.592;2022-10-18T08:31:22;21.40;51.20
17399;DHT22;8817;48.170;8.592;2022-10-18T08:33:49;21.50;51.30
17399;DHT22;8817;48.170;8.592;2022-10-18T08:36:16;21.50;51.40
17399;DHT22;8817;48.170;8.592;2022-10-18T08:38:43;21.60;51.50
17399;DHT22;8817;48.170;8.592;2022-10-18T08:44:07;21.70;51.70
17399;DHT22;8817;48.170;8.592;2022-10-18T08:46:41;21.90;51.80
17399;DHT22;8817;48.170;8.592;2022-10-18T08:49:11;22.00;51.90
17399;DHT22;8817;48.170;8.592;2022-10-18T08:51:45;21.80;52.60
17399;DHT22;8817;48.170;8.592;2022-10-18T08:54:14;22.10;52.60
17399;DHT22;8817;48.170;8.592;2022-10-18T08:56:48;22.30;52.40
17399;DHT22;8817;48.170;8.592;2022-10-18T08:59:20;22.50;52.20
17399;DHT22;8817;48.170;8.592;2022-10-18T09:01:55;22.70;52.10
17399;DHT22;8817;48.170;8.592;2022-10-18T09:04:37;22.80;52.10
17399;DHT22;8817;48.170;8.592;2022-10-18T09:07:22;22.90;51.80
17399;DHT22;8817;48.170;8.592;2022-10-18T09:09:57;23.00;51.90
17399;DHT22;8817;48.170;8.592;2022-10-18T09:12:42;23.10;51.70
17399;DHT22;8817;48.170;8.592;2022-10-18T09:15:19;23.20;51.60
17399;DHT22;8817;48.170;8.592;2022-10-18T09:18:03;23.20;51.50
17399;DHT22;8817;48.170;8.592;2022-10-18T09:20:45;23.30;51.60
17399;DHT22;8817;48.170;8.592;2022-10-18T09:23:17;23.30;51.50
17399;DHT22;8817;48.170;8.592;2022-10-18T09:25:46;23.40;51.50
17399;DHT22;8817;48.170;8.592;2022-10-18T09:28:18;23.50;51.50
17399;DHT22;8817;48.170;8.592;2022-10-18T09:30:53;23.50;51.50
17399;DHT22;8817;48.170;8.592;2022-10-18T09:33:44;23.50;51.40
17399;DHT22;8817;48.170;8.592;2022-10-18T09:36:17;23.60;51.40
17399;DHT22;8817;48.170;8.592;2022-10-18T09:38:48;23.60;51.40
17399;DHT22;8817;48.170;8.592;2022-10-18T09:41:21;23.70;51.50
17399;DHT22;8817;48.170;8.592;2022-10-18T09:43:53;23.70;51.50
17399;DHT22;8817;48.170;8.592;2022-10-18T09:46:24;23.80;51.60
17399;DHT22;8817;48.170;8.592;2022-10-18T09:48:55;23.90;51.60
17399;DHT22;8817;48.170;8.592;2022-10-18T09:51:26;23.90;51.60
17399;DHT22;8817;48.170;8.592;2022-10-18T09:54:07;24.00;51.70
17399;DHT22;8817;48.170;8.592;2022-10-18T09:56:40;24.10;51.60
17399;DHT22;8817;48.170;8.592;2022-10-18T09:59:26;24.10;51.60
17399;DHT22;8817;48.170;8.592;2022-10-18T10:01:54;24.30;51.60
17399;DHT22;8817;48.170;8.592;2022-10-18T10:04:23;24.40;51.60
17399;DHT22;8817;48.170;8.592;2022-10-18T10:06:51;24.40;51.50
17399;DHT22;8817;48.170;8.592;2022-10-18T10:09:24;24.40;51.50
17399;DHT22;8817;48.170;8.592;2022-10-18T10:11:52;24.50;51.30
17399;DHT22;8817;48.170;8.592;2022-10-18T10:14:21;24.50;51.30
17399;DHT22;8817;48.170;8.592;2022-10-18T10:16:51;24.60;51.30
17399;DHT22;8817;48.170;8.592;2022-10-18T10:19:24;24.70;51.20
17399;DHT22;8817;48.170;8.592;2022-10-18T10:21:57;24.70;51.30
17399;DHT22;8817;48.170;8.592;2022-10-18T10:24:32;24.70;51.30
17399;DHT22;8817;48.170;8.592;2022-10-18T10:27:02;24.80;51.20
17399;DHT22;8817;48.170;8.592;2022-10-18T10:29:55;24.80;51.20
17399;DHT22;8817;48.170;8.592;2022-10-18T10:32:25;24.90;51.30
17399;DHT22;8817;48.170;8.592;2022-10-18T10:34:54;25.00;51.20
17399;DHT22;8817;48.170;8.592;2022-10-18T10:37:30;25.10;51.20
17399;DHT22;8817;48.170;8.592;2022-10-18T10:40:15;25.20;51.30
17399;DHT22;8817;48.170;8.592;2022-10-18T10:42:56;25.20;51.20
17399;DHT22;8817;48.170;8.592;2022-10-18T10:45:26;25.30;51.30
17399;DHT22;8817;48.170;8.592;2022-10-18T10:47:54;25.40;51.30
17399;DHT22;8817;48.170;8.592;2022-10-18T10:50:29;25.50;51.30
17399;DHT22;8817;48.170;8.592;2022-10-18T10:52:56;25.60;51.20
17399;DHT22;8817;48.170;8.592;2022-10-18T10:55:27;25.70;51.30
17399;DHT22;8817;48.170;8.592;2022-10-18T10:57:55;25.80;51.20
17399;DHT22;8817;48.170;8.592;2022-10-18T11:00:39;25.90;51.20
17399;DHT22;8817;48.170;8.592;2022-10-18T11:03:12;25.90;51.20
17399;DHT22;8817;48.170;8.592;2022-10-18T11:05:45;26.00;51.10
17399;DHT22;8817;48.170;8.592;2022-10-18T11:08:15;26.00;51.00
17399;DHT22;8817;48.170;8.592;2022-10-18T11:10:59;26.20;51.10
17399;DHT22;8817;48.170;8.592;2022-10-18T11:13:44;26.20;51.00
17399;DHT22;8817;48.170;8.592;2022-10-18T11:16:15;26.30;50.90
17399;DHT22;8817;48.170;8.592;2022-10-18T11:18:46;26.40;50.80
17399;DHT22;8817;48.170;8.592;2022-10-18T11:21:18;26.40;50.60
17399;DHT22;8817;48.170;8.592;2022-10-18T11:23:48;26.40;50.40
17399;DHT22;8817;48.170;8.592;2022-10-18T11:26:33;26.40;50.30
17399;DHT22;8817;48.170;8.592;2022-10-18T11:29:11;26.40;50.30
17399;DHT22;8817;48.170;8.592;2022-10-18T11:31:44;26.40;50.20
17399;DHT22;8817;48.170;8.592;2022-10-18T11:37:10;26.40;50.70
17399;DHT22;8817;48.170;8.592;2022-10-18T11:39:47;26.40;50.10
17399;DHT22;8817;48.170;8.592;2022-10-18T11:42:23;26.50;50.10
17399;DHT22;8817;48.170;8.592;2022-10-18T11:45:01;26.50;50.10
17399;DHT22;8817;48.170;8.592;2022-10-18T11:47:37;26.50;50.00
17399;DHT22;8817;48.170;8.592;2022-10-18T11:50:12;26.50;50.00
17399;DHT22;8817;48.170;8.592;2022-10-18T11:52:53;26.50;49.80
17399;DHT22;8817;48.170;8.592;2022-10-18T11:55:44;26.60;49.80
17399;DHT22;8817;48.170;8.592;2022-10-18T11:58:33;26.60;49.80
17399;DHT22;8817;48.170;8.592;2022-10-18T12:01:06;26.60;49.80
17399;DHT22;8817;48.170;8.592;2022-10-18T12:03:49;26.60;49.70
17399;DHT22;8817;48.170;8.592;2022-10-18T12:06:21;26.70;49.70
17399;DHT22;8817;48.170;8.592;2022-10-18T12:08:53;26.70;49.70
17399;DHT22;8817;48.170;8.592;2022-10-18T12:11:26;26.70;49.70
17399;DHT22;8817;48.170;8.592;2022-10-18T12:13:56;26.80;49.90
17399;DHT22;8817;48.170;8.592;2022-10-18T12:16:26;26.90;49.90
17399;DHT22;8817;48.170;8.592;2022-10-18T12:18:55;27.00;50.00
17399;DHT22;8817;48.170;8.592;2022-10-18T12:21:25;27.00;50.00
17399;DHT22;8817;48.170;8.592;2022-10-18T12:23:56;27.10;49.90
17399;DHT22;8817;48.170;8.592;2022-10-18T12:26:24;27.20;49.80
17399;DHT22;8817;48.170;8.592;2022-10-18T12:28:58;27.20;49.70
17399;DHT22;8817;48.170;8.592;2022-10-18T12:31:29;27.30;49.90
17399;DHT22;8817;48.170;8.592;2022-10-18T12:34:08;27.40;50.00
17399;DHT22;8817;48.170;8.592;2022-10-18T12:36:52;27.40;50.00
17399;DHT22;8817;48.170;8.592;2022-10-18T12:39:25;27.60;49.90
17399;DHT22;8817;48.170;8.592;2022-10-18T12:41:53;27.70;49.70
17399;DHT22;8817;48.170;8.592;2022-10-18T12:44:24;27.70;49.60
17399;DHT22;8817;48.170;8.592;2022-10-18T12:46:55;27.70;49.40
17399;DHT22;8817;48.170;8.592;2022-10-18T12:49:26;27.80;49.50
17399;DHT22;8817;48.170;8.592;2022-10-18T12:51:55;27.80;49.40
17399;DHT22;8817;48.170;8.592;2022-10-18T12:54:28;27.90;49.40
17399;DHT22;8817;48.170;8.592;2022-10-18T12:56:55;27.90;49.20
17399;DHT22;8817;48.170;8.592;2022-10-18T12:59:49;28.00;49.10
17399;DHT22;8817;48.170;8.592;2022-10-18T13:02:29;27.90;49.10
17399;DHT22;8817;48.170;8.592;2022-10-18T13:04:57;27.90;48.90
17399;DHT22;8817;48.170;8.592;2022-10-18T13:07:35;28.00;49.00
17399;DHT22;8817;48.170;8.592;2022-10-18T13:10:42;27.90;48.90
17399;DHT22;8817;48.170;8.592;2022-10-18T13:13:24;27.90;49.00
17399;DHT22;8817;48.170;8.592;2022-10-18T13:16:01;28.00;48.70
17399;DHT22;8817;48.170;8.592;2022-10-18T13:18:35;28.00;48.60
17399;DHT22;8817;48.170;8.592;2022-10-18T13:21:13;28.00;48.60
17399;DHT22;8817;48.170;8.592;2022-10-18T13:26:43;27.90;48.40
17399;DHT22;8817;48.170;8.592;2022-10-18T13:29:34;27.90;48.40
17399;DHT22;8817;48.170;8.592;2022-10-18T13:32:16;27.90;48.60
17399;DHT22;8817;48.170;8.592;2022-10-18T13:34:48;28.00;48.50
17399;DHT22;8817;48.170;8.592;2022-10-18T13:37:21;28.00;48.50
17399;DHT22;8817;48.170;8.592;2022-10-18T13:39:50;28.00;48.40
17399;DHT22;8817;48.170;8.592;2022-10-18T13:42:28;28.00;48.30
17399;DHT22;8817;48.170;8.592;2022-10-18T13:47:55;28.10;48.50
17399;DHT22;8817;48.170;8.592;2022-10-18T13:50:34;28.20;48.60
17399;DHT22;8817;48.170;8.592;2022-10-18T13:53:29;28.20;48.60
17399;DHT22;8817;48.170;8.592;2022-10-18T13:59:11;28.30;48.40
17399;DHT22;8817;48.170;8.592;2022-10-18T14:01:48;28.40;48.30
17399;DHT22;8817;48.170;8.592;2022-10-18T14:04:38;28.50;48.40
17399;DHT22;8817;48.170;8.592;2022-10-18T14:07:09;28.50;48.60
17399;DHT22;8817;48.170;8.592;2022-10-18T14:09:43;28.70;48.70
17399;DHT22;8817;48.170;8.592;2022-10-18T14:12:20;28.70;48.60
17399;DHT22;8817;48.170;8.592;2022-10-18T14:14:55;28.90;48.50
17399;DHT22;8817;48.170;8.592;2022-10-18T14:17:29;29.00;48.40
17399;DHT22;8817;48.170;8.592;2022-10-18T14:20:00;29.00;48.30
17399;DHT22;8817;48.170;8.592;2022-10-18T14:22:34;29.10;48.40
17399;DHT22;8817;48.170;8.592;2022-10-18T14:25:02;29.20;48.30
17399;DHT22;8817;48.170;8.592;2022-10-18T14:27:31;29.30;48.40
17399;DHT22;8817;48.170;8.592;2022-10-18T14:30:13;29.40;48.40
17399;DHT22;8817;48.170;8.592;2022-10-18T14:32:43;29.50;48.30
17399;DHT22;8817;48.170;8.592;2022-10-18T14:35:17;29.60;48.10
17399;DHT22;8817;48.170;8.592;2022-10-18T14:37:46;29.70;48.00
17399;DHT22;8817;48.170;8.592;2022-10-18T14:40:40;29.70;47.80
17399;DHT22;8817;48.170;8.592;2022-10-18T14:43:10;29.80;47.80
17399;DHT22;8817;48.170;8.592;2022-10-18T14:45:39;29.90;47.60
17399;DHT22;8817;48.170;8.592;2022-10-18T14:48:14;30.00;47.60
17399;DHT22;8817;48.170;8.592;2022-10-18T14:50:43;30.00;47.40
17399;DHT22;8817;48.170;8.592;2022-10-18T14:53:15;30.10;47.40
17399;DHT22;8817;48.170;8.592;2022-10-18T14:55:52;30.10;47.40
17399;DHT22;8817;48.170;8.592;2022-10-18T14:58:20;30.20;47.30
17399;DHT22;8817;48.170;8.592;2022-10-18T15:00:49;30.30;47.30
17399;DHT22;8817;48.170;8.592;2022-10-18T15:03:16;30.40;47.30
17399;DHT22;8817;48.170;8.592;2022-10-18T15:05:54;30.50;47.30
17399;DHT22;8817;48.170;8.592;2022-10-18T15:08:23;30.60;47.30
17399;DHT22;8817;48.170;8.592;2022-10-18T15:10:54;30.70;47.40
17399;DHT22;8817;48.170;8.592;2022-10-18T15:13:21;30.80;47.30
17399;DHT22;8817;48.170;8.592;2022-10-18T15:15:51;31.00;47.30
17399;DHT22;8817;48.170;8.592;2022-10-18T15:18:21;31.10;47.10
17399;DHT22;8817;48.170;8.592;2022-10-18T15:21:06;31.30;46.90
17399;DHT22;8817;48.170;8.592;2022-10-18T15:23:33;31.40;46.90
17399;DHT22;8817;48.170;8.592;2022-10-18T15:26:03;31.60;46.80
17399;DHT22;8817;48.170;8.592;2022-10-18T15:28:33;31.70;46.70
17399;DHT22;8817;48.170;8.592;2022-10-18T15:31:03;31.80;46.50
17399;DHT22;8817;48.170;8.592;2022-10-18T15:33:32;32.00;46.50
17399;DHT22;8817;48.170;8.592;2022-10-18T15:36:07;32.10;46.40
17399;DHT22;8817;48.170;8.592;2022-10-18T15:38:35;32.20;46.20
17399;DHT22;8817;48.170;8.592;2022-10-18T15:41:34;32.30;46.10
17399;DHT22;8817;48.170;8.592;2022-10-18T15:44:06;32.40;45.90
17399;DHT22;8817;48.170;8.592;2022-10-18T15:46:37;32.50;45.50
17399;DHT22;8817;48.170;8.592;2022-10-18T15:49:50;32.60;45.20
17399;DHT22;8817;48.170;8.592;2022-10-18T15:52:37;32.60;45.20
17399;DHT22;8817;48.170;8.592;2022-10-18T15:58:12;32.50;44.50
17399;DHT22;8817;48.170;8.592;2022-10-18T16:00:41;32.40;43.90
17399;DHT22;8817;48.170;8.592;2022-10-18T16:03:11;32.30;43.50
17399;DHT22;8817;48.170;8.592;2022-10-18T16:05:38;32.10;43.20
17399;DHT22;8817;48.170;8.592;2022-10-18T16:08:05;31.90;43.00
17399;DHT22;8817;48.170;8.592;2022-10-18T16:10:32;31.60;42.80
17399;DHT22;8817;48.170;8.592;2022-10-18T16:12:59;31.30;42.60
17399;DHT22;8817;48.170;8.592;2022-10-18T16:15:26;30.90;42.40
17399;DHT22;8817;48.170;8.592;2022-10-18T16:17:53;30.60;42.30
17399;DHT22;8817;48.170;8.592;2022-10-18T16:20:24;30.40;42.40
17399;DHT22;8817;48.170;8.592;2022-10-18T16:22:51;30.00;42.30
17399;DHT22;8817;48.170;8.592;2022-10-18T16:25:18;29.70;42.30
17399;DHT22;8817;48.170;8.592;2022-10-18T16:27:45;29.50;42.40
17399;DHT22;8817;48.170;8.592;2022-10-18T16:30:13;29.20;42.40
17399;DHT22;8817;48.170;8.592;2022-10-18T16:32:41;28.90;42.40
17399;DHT22;8817;48.170;8.592;2022-10-18T16:35:09;28.60;42.40